createdAt,value
2022-11-26T00:01:00.892Z,19.33
2022-11-26T00:03:29.554Z,15.77
2022-11-26T00:06:01.488Z,16.10
2022-11-26T00:08:32.446Z,14.65
2022-11-26T00:11:06.252Z,14.32
2022-11-26T00:13:34.615Z,18.38
2022-11-26T00:16:03.265Z,16.80
2022-11-26T00:18:31.777Z,19.83
2022-11-26T00:21:02.684Z,18.42
2022-11-26T00:23:31.380Z,19.98
2022-11-26T00:26:04.432Z,20.52
2022-11-26T00:28:34.918Z,21.05
2022-11-26T00:31:05.848Z,27.58
2022-11-26T00:33:34.779Z,19.10
2022-11-26T00:36:09.898Z,18.33
2022-11-26T00:38:38.603Z,24.17
2022-11-26T00:41:15.577Z,20.23
2022-11-26T00:43:45.661Z,17.35
2022-11-26T00:46:15.526Z,14.73
2022-11-26T00:48:44.218Z,16.70
2022-11-26T00:51:16.366Z,23.70
2022-11-26T00:53:45.826Z,24.60
2022-11-26T00:56:19.653Z,17.35
2022-11-26T00:58:51.896Z,23.88
2022-11-26T01:01:25.782Z,26.60
2022-11-26T01:03:54.451Z,19.55
2022-11-26T01:06:25.260Z,23.10
2022-11-26T01:08:54.050Z,23.80
2022-11-26T01:11:27.374Z,24.92
2022-11-26T01:13:56.991Z,20.02
2022-11-26T01:16:27.753Z,17.48
2022-11-26T01:18:58.903Z,18.88
2022-11-26T01:21:29.643Z,18.83
2022-11-26T01:23:58.783Z,19.65
2022-11-26T01:26:34.128Z,19.80
2022-11-26T01:29:02.669Z,24.55
2022-11-26T01:31:31.953Z,29.52
2022-11-26T01:34:00.706Z,20.75
2022-11-26T01:36:31.807Z,20.98
2022-11-26T01:39:03.509Z,19.42
2022-11-26T01:41:45.160Z,14.05
2022-11-26T01:44:19.330Z,17.63
2022-11-26T01:46:48.470Z,18.77
2022-11-26T01:49:19.004Z,16.30
2022-11-26T01:51:50.054Z,21.55
2022-11-26T01:54:19.091Z,16.45
2022-11-26T02:00:08.651Z,19.60
2022-11-26T02:02:54.554Z,26.70
2022-11-26T02:05:43.997Z,26.90
2022-11-26T02:08:17.920Z,25.52
2022-11-26T02:11:16.105Z,21.55
2022-11-26T02:14:21.117Z,24.33
2022-11-26T02:17:15.621Z,25.70
2022-11-26T02:20:26.769Z,22.38
2022-11-26T02:26:59.831Z,16.73
2022-11-26T02:30:09.638Z,21.90
2022-11-26T02:32:54.495Z,24.98
2022-11-26T02:35:29.690Z,20.48
2022-11-26T02:38:02.796Z,21.65
2022-11-26T02:40:31.407Z,19.70
2022-11-26T02:43:00.084Z,19.95
2022-11-26T02:45:33.885Z,21.42
2022-11-26T02:48:05.063Z,24.27
2022-11-26T02:50:37.809Z,24.55
2022-11-26T02:53:08.447Z,33.92
2022-11-26T02:55:46.595Z,21.80
2022-11-26T02:58:18.425Z,23.65
2022-11-26T03:00:50.626Z,20.50
2022-11-26T03:03:26.458Z,24.60
2022-11-26T03:05:57.900Z,26.75
2022-11-26T03:08:28.064Z,26.08
2022-11-26T03:10:56.679Z,30.63
2022-11-26T03:13:25.352Z,22.90
2022-11-26T03:15:55.270Z,17.80
2022-11-26T03:18:23.742Z,19.88
2022-11-26T03:20:52.605Z,16.58
2022-11-26T03:23:20.862Z,17.25
2022-11-26T03:25:48.961Z,23.48
2022-11-26T03:28:42.559Z,22.05
2022-11-26T03:31:29.304Z,15.77
2022-11-26T03:34:17.472Z,20.48
2022-11-26T03:37:07.075Z,19.95
2022-11-26T03:39:38.757Z,25.92
2022-11-26T03:42:56.743Z,15.57
2022-11-26T03:45:43.125Z,12.90
2022-11-26T03:48:31.222Z,21.05
2022-11-26T03:51:13.969Z,15.75
2022-11-26T03:54:41.939Z,18.80
2022-11-26T03:57:24.944Z,16.33
2022-11-26T03:59:53.899Z,17.15
2022-11-26T04:02:22.569Z,21.48
2022-11-26T04:04:52.664Z,16.55
2022-11-26T04:07:21.320Z,15.52
2022-11-26T04:09:49.890Z,17.00
2022-11-26T04:12:18.432Z,14.82
2022-11-26T04:14:48.960Z,12.55
2022-11-26T04:17:17.630Z,21.92
2022-11-26T04:19:46.099Z,14.63
2022-11-26T04:22:16.532Z,16.02
2022-11-26T04:24:46.076Z,14.70
2022-11-26T04:27:14.657Z,16.92
2022-11-26T04:29:45.392Z,18.58
2022-11-26T04:32:14.397Z,18.88
2022-11-26T04:34:45.731Z,16.85
2022-11-26T04:37:18.660Z,22.00
2022-11-26T04:39:47.035Z,14.48
2022-11-26T04:42:15.584Z,15.73
2022-11-26T04:44:46.899Z,14.93
2022-11-26T04:47:15.857Z,17.55
2022-11-26T04:49:44.119Z,19.42
2022-11-26T04:52:12.416Z,20.05
2022-11-26T04:54:43.736Z,18.05
2022-11-26T04:57:12.150Z,18.38
2022-11-26T04:59:42.116Z,17.40
2022-11-26T05:02:10.923Z,16.08
2022-11-26T05:04:39.536Z,16.80
2022-11-26T05:07:08.027Z,24.75
2022-11-26T05:09:36.376Z,21.73
2022-11-26T05:12:06.396Z,16.58
2022-11-26T05:14:34.714Z,14.93
2022-11-26T05:17:03.065Z,20.15
2022-11-26T05:19:35.544Z,17.15
2022-11-26T05:22:07.220Z,24.30
2022-11-26T05:24:36.015Z,21.45
2022-11-26T05:27:06.571Z,15.75
2022-11-26T05:29:38.058Z,16.70
2022-11-26T05:32:07.096Z,20.13
2022-11-26T05:34:35.786Z,15.70
2022-11-26T05:37:04.327Z,22.60
2022-11-26T05:39:40.258Z,21.80
2022-11-26T05:42:22.772Z,18.13
2022-11-26T05:44:56.778Z,17.27
2022-11-26T05:47:25.039Z,20.90
2022-11-26T05:50:02.800Z,18.15
2022-11-26T05:52:31.447Z,18.20
2022-11-26T05:55:06.339Z,18.27
2022-11-26T05:57:45.589Z,16.60
2022-11-26T06:00:15.567Z,16.83
2022-11-26T06:02:44.137Z,17.63
2022-11-26T06:05:12.775Z,20.63
2022-11-26T06:07:44.608Z,23.83
2022-11-26T06:10:16.137Z,14.68
2022-11-26T06:12:46.116Z,23.77
2022-11-26T06:15:14.750Z,20.42
2022-11-26T06:17:45.582Z,16.80
2022-11-26T06:20:14.695Z,16.23
2022-11-26T06:22:58.738Z,25.35
2022-11-26T06:25:28.960Z,22.73
2022-11-26T06:27:58.669Z,21.67
2022-11-26T06:30:27.592Z,20.83
2022-11-26T06:33:02.034Z,17.25
2022-11-26T06:35:30.304Z,12.90
2022-11-26T06:37:58.688Z,22.75
2022-11-26T06:40:42.741Z,18.38
2022-11-26T06:43:12.718Z,21.50
2022-11-26T06:45:51.372Z,27.17
2022-11-26T06:48:26.396Z,19.52
2022-11-26T06:51:01.895Z,14.73
2022-11-26T06:53:36.947Z,32.25
2022-11-26T06:56:07.217Z,21.40
2022-11-26T06:58:53.712Z,24.85
2022-11-26T07:01:25.981Z,27.35
2022-11-26T07:03:56.494Z,22.45
2022-11-26T07:06:26.599Z,18.08
2022-11-26T07:08:59.300Z,24.25
2022-11-26T07:11:31.067Z,18.65
2022-11-26T07:14:01.621Z,23.50
2022-11-26T07:16:30.846Z,16.55
2022-11-26T07:19:05.996Z,22.50
2022-11-26T07:21:34.235Z,19.27
2022-11-26T07:24:02.308Z,22.38
2022-11-26T07:26:31.799Z,18.80
2022-11-26T07:29:04.620Z,15.07
2022-11-26T07:31:32.851Z,23.00
2022-11-26T07:34:11.467Z,19.33
2022-11-26T07:36:58.034Z,19.50
2022-11-26T07:39:39.451Z,21.55
2022-11-26T07:42:08.034Z,17.48
2022-11-26T07:45:02.966Z,15.65
2022-11-26T07:47:48.653Z,20.20
2022-11-26T07:50:40.071Z,24.35
2022-11-26T07:53:23.078Z,21.75
2022-11-26T07:56:07.633Z,16.42
2022-11-26T07:58:36.454Z,19.77
2022-11-26T08:01:09.891Z,16.50
2022-11-26T08:03:42.601Z,20.60
2022-11-26T08:06:13.097Z,20.35
2022-11-26T08:08:41.568Z,23.20
2022-11-26T08:11:14.922Z,22.73
2022-11-26T08:13:43.134Z,19.40
2022-11-26T08:16:13.266Z,26.75
2022-11-26T08:18:41.605Z,23.25
2022-11-26T08:21:09.566Z,20.17
2022-11-26T08:23:38.160Z,23.55
2022-11-26T08:26:30.603Z,20.73
2022-11-26T08:28:55.977Z,22.40
2022-11-26T08:31:27.668Z,30.88
2022-11-26T08:33:58.673Z,19.00
2022-11-26T08:36:26.941Z,23.23
2022-11-26T08:38:54.927Z,20.88
2022-11-26T08:41:22.919Z,27.65
2022-11-26T08:44:06.108Z,20.48
2022-11-26T08:46:37.311Z,30.00
2022-11-26T08:49:06.365Z,26.20
2022-11-26T08:51:34.498Z,26.00
2022-11-26T08:54:04.695Z,25.90
2022-11-26T08:56:32.869Z,29.50
2022-11-26T08:59:01.345Z,28.90
2022-11-26T09:01:35.271Z,23.52
2022-11-26T09:04:09.030Z,21.95
2022-11-26T09:06:38.232Z,21.50
2022-11-26T09:09:17.588Z,27.23
2022-11-26T09:11:50.953Z,21.58
2022-11-26T09:14:22.992Z,24.05
2022-11-26T09:16:52.919Z,21.80
2022-11-26T09:19:23.612Z,27.92
2022-11-26T09:21:52.477Z,19.95
2022-11-26T09:24:21.513Z,23.60
2022-11-26T09:26:52.128Z,21.83
2022-11-26T09:29:24.284Z,22.70
2022-11-26T09:32:22.544Z,19.98
2022-11-26T09:34:54.058Z,19.85
2022-11-26T09:37:25.067Z,17.88
2022-11-26T09:39:57.772Z,23.77
2022-11-26T09:42:41.991Z,16.88
2022-11-26T09:45:43.185Z,21.80
2022-11-26T09:48:23.057Z,18.58
2022-11-26T09:51:14.894Z,20.55
2022-11-26T09:53:56.723Z,24.58
2022-11-26T09:56:35.415Z,23.83
2022-11-26T09:59:09.843Z,21.05
2022-11-26T10:01:49.421Z,16.45
2022-11-26T10:04:25.156Z,21.55
2022-11-26T10:07:10.599Z,10.88
2022-11-26T10:09:55.449Z,12.63
2022-11-26T10:12:50.329Z,12.25
2022-11-26T10:15:41.161Z,9.75
2022-11-26T10:18:25.189Z,13.80
2022-11-26T10:21:10.818Z,11.82
2022-11-26T10:23:47.817Z,15.25
2022-11-26T10:26:18.453Z,11.02
2022-11-26T10:28:53.989Z,16.00
2022-11-26T10:31:26.796Z,10.93
2022-11-26T10:34:06.351Z,15.68
2022-11-26T10:36:47.087Z,13.57
2022-11-26T10:39:23.490Z,14.63
2022-11-26T10:41:52.295Z,17.60
2022-11-26T10:44:36.758Z,17.83
2022-11-26T10:47:30.424Z,17.38
2022-11-26T10:50:50.548Z,15.88
2022-11-26T10:53:26.914Z,14.98
2022-11-26T10:56:05.069Z,23.80
2022-11-26T10:58:45.366Z,19.75
2022-11-26T11:01:19.839Z,21.75
2022-11-26T11:04:09.737Z,18.65
2022-11-26T11:06:50.160Z,19.77
2022-11-26T11:09:33.365Z,25.10
2022-11-26T11:12:30.505Z,15.95
2022-11-26T11:15:32.405Z,19.15
2022-11-26T11:18:17.311Z,22.60
2022-11-26T11:21:07.706Z,16.90
2022-11-26T11:24:06.989Z,15.90
2022-11-26T11:26:51.310Z,18.48
2022-11-26T11:29:33.803Z,11.65
2022-11-26T11:32:10.424Z,12.27
2022-11-26T11:34:55.939Z,14.65
2022-11-26T11:37:30.142Z,13.95
2022-11-26T11:40:17.191Z,14.02
2022-11-26T11:43:09.966Z,12.75
2022-11-26T11:45:52.790Z,16.55
2022-11-26T11:48:34.022Z,11.93
2022-11-26T11:51:24.040Z,12.77
2022-11-26T11:54:12.600Z,14.05
2022-11-26T11:56:53.110Z,10.10
2022-11-26T12:00:01.114Z,10.65
2022-11-26T12:05:55.335Z,11.48
2022-11-26T12:08:42.121Z,11.45
2022-11-26T12:11:40.102Z,8.18
2022-11-26T12:14:15.945Z,12.90
2022-11-26T12:16:59.913Z,11.73
2022-11-26T12:19:41.932Z,11.13
2022-11-26T12:22:21.797Z,9.25
2022-11-26T12:25:06.222Z,18.23
2022-11-26T12:27:44.730Z,12.07
2022-11-26T12:30:17.660Z,15.13
2022-11-26T12:32:53.360Z,19.42
2022-11-26T12:35:31.836Z,18.08
2022-11-26T12:38:03.847Z,12.88
2022-11-26T12:40:38.849Z,10.23
2022-11-26T12:43:14.374Z,16.10
2022-11-26T12:45:53.759Z,17.00
2022-11-26T12:48:42.334Z,16.17
2022-11-26T12:51:30.078Z,20.15
2022-11-26T12:54:16.608Z,17.15
2022-11-26T12:56:57.684Z,13.10
2022-11-26T12:59:33.959Z,22.33
2022-11-26T13:02:18.925Z,19.08
2022-11-26T13:04:51.502Z,12.75
2022-11-26T13:10:08.598Z,14.02
2022-11-26T13:12:46.906Z,17.90
2022-11-26T13:15:26.650Z,16.88
2022-11-26T13:17:58.424Z,13.35
2022-11-26T13:20:59.336Z,14.18
2022-11-26T13:23:46.970Z,17.70
2022-11-26T13:26:36.580Z,23.27
2022-11-26T13:29:24.916Z,19.25
2022-11-26T13:32:12.687Z,14.50
2022-11-26T13:35:10.346Z,18.63
2022-11-26T13:37:52.009Z,18.05
2022-11-26T13:40:59.014Z,20.48
2022-11-26T13:44:10.439Z,18.58
2022-11-26T13:46:42.553Z,23.80
2022-11-26T13:49:15.310Z,17.15
2022-11-26T13:51:50.155Z,13.45
2022-11-26T13:54:22.690Z,16.25
2022-11-26T13:59:28.764Z,18.20
2022-11-26T14:01:59.713Z,14.75
2022-11-26T14:04:53.710Z,16.77
2022-11-26T14:07:25.702Z,13.40
2022-11-26T14:09:56.330Z,11.15
2022-11-26T14:13:06.084Z,15.55
2022-11-26T14:16:00.465Z,16.40
2022-11-26T14:19:03.080Z,13.93
2022-11-26T14:21:31.851Z,18.20
2022-11-26T14:24:02.985Z,18.13
2022-11-26T14:26:37.690Z,21.17
2022-11-26T14:29:13.489Z,18.67
2022-11-26T14:31:47.439Z,17.38
2022-11-26T14:34:23.052Z,19.15
2022-11-26T14:36:57.521Z,14.55
2022-11-26T14:39:26.315Z,16.27
2022-11-26T14:42:00.341Z,15.60
2022-11-26T14:44:37.257Z,14.88
2022-11-26T14:47:15.012Z,16.02
2022-11-26T14:49:54.356Z,18.30
2022-11-26T14:52:32.861Z,22.58
2022-11-26T14:55:05.989Z,13.43
2022-11-26T14:57:44.491Z,17.70
2022-11-26T15:00:32.646Z,18.15
2022-11-26T15:03:08.192Z,21.13
2022-11-26T15:05:45.061Z,19.40
2022-11-26T15:08:21.271Z,11.68
2022-11-26T15:10:55.581Z,13.00
2022-11-26T15:13:30.168Z,14.32
2022-11-26T15:16:03.174Z,20.92
2022-11-26T15:18:38.913Z,32.55
2022-11-26T15:21:20.467Z,38.45
2022-11-26T15:23:54.750Z,30.25
2022-11-26T15:26:24.166Z,24.15
2022-11-26T15:28:52.718Z,17.08
2022-11-26T15:31:22.825Z,25.08
2022-11-26T15:34:01.260Z,16.30
2022-11-26T15:36:30.674Z,18.77
2022-11-26T15:39:29.442Z,17.08
2022-11-26T15:42:03.533Z,16.02
2022-11-26T15:44:42.636Z,15.23
2022-11-26T15:47:23.738Z,15.20
2022-11-26T15:49:55.490Z,13.48
2022-11-26T15:52:28.918Z,15.60
2022-11-26T15:55:13.664Z,18.10
2022-11-26T15:57:46.618Z,13.23
2022-11-26T16:00:23.232Z,16.98
2022-11-26T16:03:31.343Z,10.05
2022-11-26T16:06:16.075Z,15.30
2022-11-26T16:09:01.277Z,19.45
2022-11-26T16:11:37.312Z,13.63
2022-11-26T16:14:29.242Z,15.70
2022-11-26T16:16:58.521Z,15.38
2022-11-26T16:19:37.851Z,17.77
2022-11-26T16:22:09.309Z,15.98
2022-11-26T16:24:42.686Z,12.60
2022-11-26T16:27:29.011Z,14.20
2022-11-26T16:30:00.609Z,17.88
2022-11-26T16:32:34.360Z,20.10
2022-11-26T16:35:17.446Z,24.90
2022-11-26T16:37:54.320Z,18.02
2022-11-26T16:43:21.017Z,17.27
2022-11-26T16:45:59.020Z,17.23
2022-11-26T16:48:29.278Z,19.77
2022-11-26T16:50:59.525Z,17.00
2022-11-26T16:53:29.592Z,21.20
2022-11-26T16:56:04.008Z,16.35
2022-11-26T16:58:38.735Z,17.67
2022-11-26T17:01:08.272Z,25.02
2022-11-26T17:03:36.976Z,17.90
2022-11-26T17:06:30.198Z,20.95
2022-11-26T17:09:15.785Z,21.38
2022-11-26T17:11:57.340Z,21.95
2022-11-26T17:14:44.951Z,22.75
2022-11-26T17:17:36.778Z,23.80
2022-11-26T17:20:08.967Z,22.55
2022-11-26T17:22:40.864Z,31.48
2022-11-26T17:25:18.259Z,27.58
2022-11-26T17:27:47.948Z,20.08
2022-11-26T17:30:18.671Z,19.40
2022-11-26T17:32:46.832Z,16.83
2022-11-26T17:35:15.237Z,20.80
2022-11-26T17:37:50.694Z,26.38
2022-11-26T17:40:22.130Z,26.52
2022-11-26T17:42:51.191Z,25.83
2022-11-26T17:45:19.853Z,23.65
2022-11-26T17:47:48.212Z,20.20
2022-11-26T17:50:20.108Z,27.75
2022-11-26T17:52:48.883Z,19.70
2022-11-26T17:55:19.449Z,20.83
2022-11-26T17:57:47.480Z,17.50
2022-11-26T18:00:21.499Z,21.70
2022-11-26T18:02:52.492Z,18.90
2022-11-26T18:05:21.019Z,22.15
2022-11-26T18:07:49.843Z,23.52
2022-11-26T18:10:22.071Z,20.20
2022-11-26T18:12:53.743Z,20.23
2022-11-26T18:15:26.747Z,19.02
2022-11-26T18:17:56.519Z,22.00
2022-11-26T18:20:26.518Z,21.52
2022-11-26T18:22:56.470Z,20.63
2022-11-26T18:25:29.412Z,21.27
2022-11-26T18:27:57.520Z,24.02
2022-11-26T18:30:30.597Z,25.20
2022-11-26T18:32:58.702Z,17.17
2022-11-26T18:35:26.627Z,23.42
2022-11-26T18:37:54.631Z,18.05
2022-11-26T18:40:27.561Z,20.67
2022-11-26T18:42:55.563Z,17.38
2022-11-26T18:45:23.535Z,17.60
2022-11-26T18:47:51.577Z,20.05
2022-11-26T18:50:19.732Z,18.77
2022-11-26T18:52:50.552Z,21.17
2022-11-26T18:55:19.197Z,18.98
2022-11-26T18:57:48.589Z,34.47
2022-11-26T19:00:17.224Z,27.83
2022-11-26T19:02:45.318Z,20.15
2022-11-26T19:05:13.411Z,21.35
2022-11-26T19:07:42.774Z,22.15
2022-11-26T19:10:13.612Z,19.98
2022-11-26T19:12:41.646Z,24.13
2022-11-26T19:15:11.599Z,19.65
2022-11-26T19:17:42.170Z,18.27
2022-11-26T19:20:10.441Z,22.45
2022-11-26T19:22:38.569Z,23.23
2022-11-26T19:25:07.132Z,21.25
2022-11-26T19:27:35.473Z,17.10
2022-11-26T19:30:03.546Z,18.75
2022-11-26T19:32:32.951Z,19.33
2022-11-26T19:35:05.645Z,19.73
2022-11-26T19:37:35.784Z,21.02
2022-11-26T19:40:04.395Z,18.75
2022-11-26T19:42:32.757Z,27.17
2022-11-26T19:45:00.683Z,25.58
2022-11-26T19:47:28.842Z,20.35
2022-11-26T19:49:58.308Z,19.98
2022-11-26T19:52:26.336Z,29.13
2022-11-26T19:54:54.305Z,30.65
2022-11-26T19:57:22.327Z,28.40
2022-11-26T19:59:52.661Z,27.38
2022-11-26T20:02:23.353Z,27.50
2022-11-26T20:04:51.411Z,26.70
2022-11-26T20:07:20.878Z,28.70
2022-11-26T20:09:54.776Z,31.08
2022-11-26T20:12:22.731Z,32.65
2022-11-26T20:14:52.851Z,25.52
2022-11-26T20:17:20.853Z,32.35
2022-11-26T20:19:50.255Z,35.58
2022-11-26T20:22:21.048Z,29.92
2022-11-26T20:24:50.389Z,24.88
2022-11-26T20:27:19.559Z,26.40
2022-11-26T20:29:47.517Z,23.25
2022-11-26T20:32:15.421Z,24.42
2022-11-26T20:34:45.812Z,20.27
2022-11-26T20:37:13.719Z,23.98
2022-11-26T20:39:42.120Z,23.08
2022-11-26T20:42:11.896Z,30.92
2022-11-26T20:44:40.260Z,23.08
2022-11-26T20:47:08.267Z,26.50
2022-11-26T20:49:42.699Z,25.08
2022-11-26T20:52:11.264Z,29.73
2022-11-26T20:54:39.477Z,33.67
2022-11-26T20:57:07.458Z,28.40
2022-11-26T20:59:37.752Z,29.55
2022-11-26T21:02:08.253Z,25.95
2022-11-26T21:04:36.274Z,26.27
2022-11-26T21:07:04.502Z,31.40
2022-11-26T21:09:32.566Z,28.63
2022-11-26T21:12:00.777Z,27.67
2022-11-26T21:14:29.484Z,32.55
2022-11-26T21:16:58.960Z,26.25
2022-11-26T21:19:27.137Z,27.25
2022-11-26T21:21:55.173Z,27.55
2022-11-26T21:24:23.463Z,22.38
2022-11-26T21:26:51.427Z,29.95
2022-11-26T21:29:19.549Z,26.30
2022-11-26T21:31:49.139Z,33.20
2022-11-26T21:34:18.540Z,27.42
2022-11-26T21:36:46.749Z,27.35
2022-11-26T21:39:17.403Z,28.20
2022-11-26T21:41:45.488Z,27.25
2022-11-26T21:44:13.562Z,28.23
2022-11-26T21:46:41.649Z,27.55
2022-11-26T21:49:09.816Z,28.50
2022-11-26T21:51:39.185Z,30.30
2022-11-26T21:54:07.170Z,34.15
2022-11-26T21:56:38.120Z,35.65
2022-11-26T21:59:06.088Z,27.30
2022-11-26T22:01:36.141Z,28.52
2022-11-26T22:04:08.111Z,22.80
2022-11-26T22:06:37.823Z,23.90
2022-11-26T22:09:06.550Z,24.70
2022-11-26T22:11:36.544Z,25.23
2022-11-26T22:14:08.050Z,28.45
2022-11-26T22:16:36.511Z,18.75
2022-11-26T22:19:04.727Z,32.63
2022-11-26T22:21:35.647Z,25.70
2022-11-26T22:24:06.580Z,27.40
2022-11-26T22:26:34.953Z,29.15
2022-11-26T22:29:03.046Z,30.17
2022-11-26T22:31:32.917Z,32.40
2022-11-26T22:34:03.053Z,28.60
2022-11-26T22:36:31.859Z,27.92
2022-11-26T22:39:00.650Z,28.48
2022-11-26T22:41:29.983Z,31.00
2022-11-26T22:44:00.064Z,39.00
2022-11-26T22:46:28.297Z,27.27
2022-11-26T22:49:02.937Z,30.80
2022-11-26T22:51:34.121Z,26.80
2022-11-26T22:54:06.503Z,30.35
2022-11-26T22:56:38.008Z,27.40
2022-11-26T22:59:07.655Z,30.63
2022-11-26T23:01:44.164Z,25.02
2022-11-26T23:04:17.756Z,24.40
2022-11-26T23:06:52.235Z,31.48
2022-11-26T23:09:29.933Z,29.75
2022-11-26T23:12:03.550Z,30.02
2022-11-26T23:14:44.781Z,26.38
2022-11-26T23:17:22.125Z,22.27
2022-11-26T23:19:56.327Z,29.52
2022-11-26T23:22:51.193Z,27.83
2022-11-26T23:25:44.541Z,27.63
2022-11-26T23:31:21.752Z,28.92
2022-11-26T23:33:57.758Z,31.50
2022-11-26T23:36:35.491Z,28.10
2022-11-26T23:39:11.810Z,31.58
2022-11-26T23:41:39.872Z,25.73
2022-11-26T23:44:36.623Z,30.50
2022-11-26T23:47:13.530Z,26.80
2022-11-26T23:49:49.902Z,30.08
2022-11-26T23:52:21.548Z,26.35
2022-11-26T23:54:54.812Z,26.30
2022-11-26T23:57:31.356Z,26.58
